Time;durP1;ratioP1;P1;durP2;ratioP2;P2;SDS_P1;SDS_P2;PMS_P1;PMS_P2;Temp;Humidity;BMP_temperature;BMP_pressure;BME280_temperature;BME280_humidity;BME280_pressure;Samples;Min_cycle;Max_cycle;Signal;HPM_P1;HPM_P2
2022/11/07 00:00:19;;;;;;;;;;;;;;;20.44;69.43;101305.25;7407895;19;1367;-65
2022/11/07 00:02:48;;;;;;;;;;;;;;;20.42;69.18;101299.16;7409545;19;1015;-65
2022/11/07 00:05:16;;;;;;;;;;;;;;;20.46;69.28;101310.50;7405209;19;1487;-65
2022/11/07 00:07:44;;;;;;;;;;;;;;;20.44;69.40;101312.47;7409077;19;1211;-65
2022/11/07 00:10:15;;;;;;;;;;;;;;;20.47;69.22;101306.81;7408516;19;1748;-65
2022/11/07 00:12:43;;;;;;;;;;;;;;;20.46;69.17;101308.66;7406583;19;1678;-65
2022/11/07 00:15:12;;;;;;;;;;;;;;;20.44;69.10;101301.72;7407629;19;1637;-65
2022/11/07 00:17:40;;;;;;;;;;;;;;;20.44;68.97;101309.78;7407649;19;1858;-65
2022/11/07 00:20:09;;;;;;;;;;;;;;;20.42;69.08;101298.31;7407230;19;1673;-65
2022/11/07 00:22:38;;;;;;;;;;;;;;;20.43;68.89;101290.13;7407141;19;1318;-65
2022/11/07 00:25:07;;;;;;;;;;;;;;;20.45;69.21;101298.03;7407597;19;1313;-65
2022/11/07 00:27:38;;;;;;;;;;;;;;;20.43;68.93;101294.63;7408084;19;1306;-65
2022/11/07 00:30:07;;;;;;;;;;;;;;;20.44;68.72;101301.72;7408588;19;1529;-65
2022/11/07 00:32:35;;;;;;;;;;;;;;;20.40;69.06;101270.72;7409112;19;934;-65
2022/11/07 00:35:04;;;;;;;;;;;;;;;20.40;68.93;101297.59;7405356;19;1722;-65
2022/11/07 00:37:32;;;;;;;;;;;;;;;20.42;68.78;101284.88;7406933;19;1845;-65
2022/11/07 00:40:00;;;;;;;;;;;;;;;20.40;68.78;101290.38;7405549;19;1551;-65
2022/11/07 00:42:29;;;;;;;;;;;;;;;20.44;68.82;101297.19;7407441;19;1440;-65
2022/11/07 00:44:59;;;;;;;;;;;;;;;20.42;68.68;101293.78;7408447;19;1012;-65
2022/11/07 00:47:28;;;;;;;;;;;;;;;20.41;68.91;101301.97;7408543;19;1011;-65
2022/11/07 00:49:56;;;;;;;;;;;;;;;20.41;68.64;101280.47;7401980;19;1468;-65
2022/11/07 00:52:24;;;;;;;;;;;;;;;20.38;68.70;101286.13;7404837;19;1327;-65
2022/11/07 00:54:53;;;;;;;;;;;;;;;20.41;68.71;101297.47;7407809;19;1514;-65
2022/11/07 00:57:21;;;;;;;;;;;;;;;20.39;68.71;101266.31;7407101;19;1590;-65
2022/11/07 00:59:49;;;;;;;;;;;;;;;20.41;68.50;101280.47;7405916;19;1840;-65
2022/11/07 01:02:20;;;;;;;;;;;;;;;20.40;68.75;101279.63;7403779;19;1756;-65
2022/11/07 01:07:29;;;;;;;;;;;;;;;20.36;68.53;101264.75;7406549;19;1239;-65
2022/11/07 01:09:58;;;;;;;;;;;;;;;20.39;68.58;101260.94;7405774;19;1535;-65
2022/11/07 01:12:26;;;;;;;;;;;;;;;20.40;68.55;101262.66;7406982;19;1418;-65
2022/11/07 01:14:54;;;;;;;;;;;;;;;20.37;68.57;101255.75;7407439;19;987;-65
2022/11/07 01:17:25;;;;;;;;;;;;;;;20.42;68.40;101261.53;7406661;19;1752;-65
2022/11/07 01:19:53;;;;;;;;;;;;;;;20.42;68.55;101266.06;7401789;19;1849;-65
2022/11/07 01:22:22;;;;;;;;;;;;;;;20.36;68.62;101255.88;7404953;19;1318;-65
2022/11/07 01:24:50;;;;;;;;;;;;;;;20.41;68.82;101280.47;7406190;19;1632;-65
2022/11/07 01:27:19;;;;;;;;;;;;;;;20.37;68.37;101273.66;7407002;19;1178;-65
2022/11/07 01:29:47;;;;;;;;;;;;;;;20.37;68.67;101281.72;7407376;19;1020;-65
2022/11/07 01:32:15;;;;;;;;;;;;;;;20.36;68.66;101294.31;7405837;19;1701;-65
2022/11/07 01:34:46;;;;;;;;;;;;;;;20.36;68.55;101285.41;7402222;19;1579;-65
2022/11/07 01:37:15;;;;;;;;;;;;;;;20.34;68.39;101277.47;7406131;19;1354;-65
2022/11/07 01:39:43;;;;;;;;;;;;;;;20.37;68.46;101273.66;7404623;19;1891;-65
2022/11/07 01:42:12;;;;;;;;;;;;;;;20.35;68.67;101275.63;7406514;19;1055;-65
2022/11/07 01:44:51;;;;;;;;;;;;;;;20.37;68.39;101270.97;7404162;19;1747;-65
2022/11/07 01:47:20;;;;;;;;;;;;;;;20.36;68.40;101269.28;7405474;19;1761;-65
2022/11/07 01:49:51;;;;;;;;;;;;;;;20.32;68.36;101263.31;7402105;19;1483;-65
2022/11/07 01:52:21;;;;;;;;;;;;;;;20.36;68.15;101280.88;7403521;19;1295;-65
2022/11/07 01:54:52;;;;;;;;;;;;;;;20.35;68.59;101286.38;7405511;19;1329;-65
2022/11/07 01:57:22;;;;;;;;;;;;;;;20.34;68.42;101287.38;7406007;19;1523;-65
2022/11/07 01:59:51;;;;;;;;;;;;;;;20.33;68.22;101299.94;7403757;19;1878;-65
2022/11/07 02:02:19;;;;;;;;;;;;;;;20.32;68.41;101289.34;7405626;19;1682;-65
2022/11/07 02:04:48;;;;;;;;;;;;;;;20.89;67.13;101279.03;7399973;19;1432;-65
2022/11/07 02:07:20;;;;;;;;;;;;;;;21.31;65.78;101301.28;7402887;19;1346;-65
2022/11/07 02:09:49;;;;;;;;;;;;;;;21.35;65.69;101286.56;7405371;19;1420;-65
2022/11/07 02:12:18;;;;;;;;;;;;;;;21.08;66.36;101307.84;7406080;19;982;-65
2022/11/07 02:14:47;;;;;;;;;;;;;;;20.98;66.83;101303.28;7405856;19;1019;-65
2022/11/07 02:17:16;;;;;;;;;;;;;;;21.31;66.00;101290.53;7405106;19;1610;-65
2022/11/07 02:19:46;;;;;;;;;;;;;;;21.88;64.43;101314.13;7399990;19;1857;-65
2022/11/07 02:22:16;;;;;;;;;;;;;;;22.21;63.36;101305.59;7403504;19;1531;-66
2022/11/07 02:24:48;;;;;;;;;;;;;;;21.79;64.34;101289.75;7404635;19;1581;-65
2022/11/07 02:27:20;;;;;;;;;;;;;;;21.31;65.82;101292.34;7405187;19;993;-65
2022/11/07 02:29:51;;;;;;;;;;;;;;;21.20;66.18;101299.53;7405616;19;940;-65
2022/11/07 02:32:19;;;;;;;;;;;;;;;21.47;65.23;101290.00;7404607;19;1761;-65
2022/11/07 02:34:56;;;;;;;;;;;;;;;21.57;65.30;101290.88;7402073;19;1510;-65
2022/11/07 02:37:26;;;;;;;;;;;;;;;21.29;65.90;101297.88;7403535;19;1630;-65
2022/11/07 02:39:57;;;;;;;;;;;;;;;21.15;66.56;101295.53;7402318;19;1846;-65
2022/11/07 02:42:25;;;;;;;;;;;;;;;21.38;65.63;101291.66;7403862;19;1539;-65
2022/11/07 02:44:55;;;;;;;;;;;;;;;21.63;64.88;101289.47;7404762;19;934;-65
2022/11/07 02:47:23;;;;;;;;;;;;;;;21.48;65.23;101280.09;7404657;19;1658;-65
2022/11/07 02:49:52;;;;;;;;;;;;;;;21.22;66.18;101280.56;7401683;19;1464;-65
2022/11/07 02:52:20;;;;;;;;;;;;;;;21.40;65.83;101300.44;7402087;19;1547;-65
2022/11/07 02:54:48;;;;;;;;;;;;;;;21.63;64.88;101289.47;7403982;19;1530;-65
2022/11/07 02:57:19;;;;;;;;;;;;;;;21.56;65.17;101291.00;7404548;19;1003;-65
2022/11/07 02:59:47;;;;;;;;;;;;;;;21.34;65.86;101301.00;7403257;19;1855;-65
2022/11/07 03:02:17;;;;;;;;;;;;;;;21.33;65.88;101298.44;7398914;19;3438;-89
2022/11/07 03:04:46;;;;;;;;;;;;;;;21.59;65.38;101305.03;7409663;19;1373;-89
2022/11/07 03:07:15;;;;;;;;;;;;;;;21.73;64.44;101306.47;7406699;19;1595;-89
2022/11/07 03:09:43;;;;;;;;;;;;;;;21.56;64.96;101318.75;7405216;19;1500;-89
2022/11/07 03:12:14;;;;;;;;;;;;;;;21.29;65.97;101311.31;7405203;19;1552;-89
2022/11/07 03:14:45;;;;;;;;;;;;;;;21.53;65.15;101307.44;7407561;19;1551;-89
2022/11/07 03:17:13;;;;;;;;;;;;;;;21.71;64.77;101326.47;7412843;19;1450;-89
2022/11/07 03:19:43;;;;;;;;;;;;;;;21.61;64.77;101307.59;7413111;19;1857;-89
2022/11/07 03:22:11;;;;;;;;;;;;;;;21.44;65.66;101315.34;7413915;19;1398;-89
2022/11/07 03:24:47;;;;;;;;;;;;;;;21.38;65.71;101315.03;7409578;19;1511;-89
2022/11/07 03:27:15;;;;;;;;;;;;;;;21.61;64.96;101318.38;7415263;19;1021;-89
2022/11/07 03:29:46;;;;;;;;;;;;;;;21.71;64.84;101321.91;7418859;19;1664;-88
2022/11/07 03:32:15;;;;;;;;;;;;;;;21.60;64.98;101306.72;7431275;19;1532;-88
2022/11/07 03:34:47;;;;;;;;;;;;;;;21.43;65.51;101321.72;7415910;19;1452;-89
2022/11/07 03:37:15;;;;;;;;;;;;;;;21.52;65.17;101324.56;7412055;19;1684;-90
2022/11/07 03:39:47;;;;;;;;;;;;;;;21.74;64.54;101308.16;7407578;19;1817;-91
2022/11/07 03:42:15;;;;;;;;;;;;;;;21.71;64.65;101326.47;7415481;19;919;-91
2022/11/07 03:44:46;;;;;;;;;;;;;;;21.51;65.36;101312.13;7414992;19;1357;-91
2022/11/07 03:47:17;;;;;;;;;;;;;;;21.38;65.34;101318.56;7413495;19;1684;-91
2022/11/07 03:49:46;;;;;;;;;;;;;;;21.59;65.06;101312.28;7414987;19;1444;-90
2022/11/07 03:52:14;;;;;;;;;;;;;;;21.75;64.43;101298.28;7410167;19;1480;-89
2022/11/07 03:54:43;;;;;;;;;;;;;;;21.71;64.61;101316.53;7407157;19;1401;-91
2022/11/07 03:57:11;;;;;;;;;;;;;;;21.48;65.39;101302.47;7415906;19;1500;-89
2022/11/07 03:59:42;;;;;;;;;;;;;;;21.38;65.77;101312.31;7421154;19;1847;-90
2022/11/07 04:02:10;;;;;;;;;;;;;;;21.62;64.75;101304.75;7411279;19;1395;-91
2022/11/07 04:04:50;;;;;;;;;;;;;;;21.85;64.34;101324.19;7414554;19;1363;-92
2022/11/07 04:07:19;;;;;;;;;;;;;;;21.64;64.72;101312.69;7411010;19;1307;-91
2022/11/07 04:09:49;;;;;;;;;;;;;;;21.45;65.33;101297.38;7409007;19;1299;-91
2022/11/07 04:17:38;;;;;;;;;;;;;;;21.78;64.49;101320.34;7406882;19;1303;-88
2022/11/07 04:20:12;;;;;;;;;;;;;;;21.72;64.68;101329.00;7409618;19;1841;-89
2022/11/07 04:22:45;;;;;;;;;;;;;;;21.53;65.05;101305.59;7420111;19;1669;-90
2022/11/07 04:25:13;;;;;;;;;;;;;;;21.43;65.51;101302.06;7422859;19;1248;-89
2022/11/07 04:27:42;;;;;;;;;;;;;;;21.65;64.88;101319.78;7411958;19;1428;-90
2022/11/07 04:30:22;;;;;;;;;;;;;;;21.88;64.58;101330.28;7412654;19;1163;-89
2022/11/07 04:32:52;;;;;;;;;;;;;;;21.65;65.35;101317.09;7413360;19;1042;-89
2022/11/07 04:35:27;;;;;;;;;;;;;;;21.50;65.45;101315.78;7411912;19;1381;-89
2022/11/07 04:37:56;;;;;;;;;;;;;;;21.66;65.45;101316.09;7414948;19;1441;-90
2022/11/07 04:40:29;;;;;;;;;;;;;;;21.81;64.74;101320.09;7335101;19;12297;-92
2022/11/07 04:42:57;;;;;;;;;;;;;;;21.75;65.08;101325.19;7410613;19;1401;-90
2022/11/07 04:45:32;;;;;;;;;;;;;;;21.57;65.75;101325.03;7412018;19;1329;-89
2022/11/07 04:48:09;;;;;;;;;;;;;;;21.41;66.13;101312.91;7410320;19;1504;-90
2022/11/07 04:50:41;;;;;;;;;;;;;;;21.59;65.68;101323.88;7413357;19;1501;-88
2022/11/07 04:53:12;;;;;;;;;;;;;;;21.75;65.24;101319.81;7413301;19;1511;-90
2022/11/07 04:55:41;;;;;;;;;;;;;;;21.73;65.36;101311.84;7407171;19;1529;-90
2022/11/07 04:58:10;;;;;;;;;;;;;;;21.55;65.83;101311.69;7409083;19;1283;-90
2022/11/07 05:00:40;;;;;;;;;;;;;;;21.49;65.88;101323.03;7412363;19;1828;-89
2022/11/07 05:03:16;;;;;;;;;;;;;;;21.64;65.73;101320.75;7417371;19;1449;-89
2022/11/07 05:05:47;;;;;;;;;;;;;;;21.80;65.25;101336.38;7424033;19;1496;-89
2022/11/07 05:08:22;;;;;;;;;;;;;;;21.73;65.56;101322.63;7414098;19;1409;-90
2022/11/07 05:10:52;;;;;;;;;;;;;;;21.54;65.88;101352.19;7408105;19;1499;-89
2022/11/07 05:13:21;;;;;;;;;;;;;;;21.37;66.52;101351.84;7411860;19;1433;-93
2022/11/07 05:15:50;;;;;;;;;;;;;;;21.71;65.55;101353.38;7407202;19;1601;-93
2022/11/07 05:18:20;;;;;;;;;;;;;;;21.90;65.04;101349.84;7409026;19;1495;-92
2022/11/07 05:20:54;;;;;;;;;;;;;;;21.72;65.26;101366.66;7407745;19;1845;-93
2022/11/07 05:23:26;;;;;;;;;;;;;;;21.53;66.19;101362.13;7411542;19;1635;-91
2022/11/07 05:26:01;;;;;;;;;;;;;;;21.45;66.66;101357.41;6911085;19;10000002;-90
2022/11/07 05:28:30;;;;;;;;;;;;;;;21.74;65.90;101362.00;7413418;19;1542;-92
2022/11/07 05:30:59;;;;;;;;;;;;;;;21.84;65.26;101357.50;7411277;19;1421;-89
2022/11/07 05:33:28;;;;;;;;;;;;;;;21.64;65.93;101372.75;7412122;19;1500;-90
2022/11/07 05:36:09;;;;;;;;;;;;;;;21.50;66.21;101380.38;7408404;19;1512;-93
2022/11/07 05:38:39;;;;;;;;;;;;;;;21.40;66.86;101370.38;7408003;19;1403;-93
2022/11/07 05:41:07;;;;;;;;;;;;;;;21.71;65.95;101370.38;7407524;19;1845;-89
2022/11/07 05:43:36;;;;;;;;;;;;;;;22.01;65.13;101390.13;7409750;19;1378;-89
2022/11/07 05:46:05;;;;;;;;;;;;;;;21.81;65.30;101400.00;7409511;19;1404;-90
2022/11/07 05:48:34;;;;;;;;;;;;;;;21.57;65.79;101420.06;7406993;19;1372;-90
2022/11/07 05:51:08;;;;;;;;;;;;;;;21.39;66.53;101400.13;7408153;19;1535;-89
2022/11/07 05:53:41;;;;;;;;;;;;;;;21.74;65.81;101402.38;7406448;19;1479;-88
2022/11/07 05:56:09;;;;;;;;;;;;;;;21.87;65.48;101393.22;7407860;19;1376;-89
2022/11/07 05:58:38;;;;;;;;;;;;;;;21.77;65.39;101418.28;7406897;19;1504;-90
2022/11/07 06:01:07;;;;;;;;;;;;;;;21.54;65.38;101403.31;7407023;19;1885;-88
2022/11/07 06:03:40;;;;;;;;;;;;;;;21.40;64.71;101424.19;7404270;19;1657;-90
2022/11/07 06:06:25;;;;;;;;;;;;;;;21.72;65.46;101417.81;7405900;19;1445;-90
2022/11/07 06:08:57;;;;;;;;;;;;;;;21.93;64.73;101427.66;7407271;19;1411;-90
2022/11/07 06:11:27;;;;;;;;;;;;;;;21.72;64.95;101423.22;7407389;19;1481;-91
2022/11/07 06:13:55;;;;;;;;;;;;;;;21.53;64.56;101423.16;7406664;19;1623;-90
2022/11/07 06:16:26;;;;;;;;;;;;;;;21.36;65.54;101430.84;7409164;19;1472;-92
2022/11/07 06:19:01;;;;;;;;;;;;;;;21.63;65.54;101424.06;7405943;19;1761;-90
2022/11/07 06:21:31;;;;;;;;;;;;;;;21.94;64.31;101440.13;7406870;19;1816;-92
2022/11/07 06:24:06;;;;;;;;;;;;;;;21.76;64.55;101430.00;7408335;19;1470;-90
2022/11/07 06:26:36;;;;;;;;;;;;;;;21.56;64.19;101437.19;7410152;19;1407;-90
2022/11/07 06:29:11;;;;;;;;;;;;;;;21.35;64.18;101442.59;7408923;19;1649;-93
2022/11/07 06:31:49;;;;;;;;;;;;;;;21.57;64.98;101429.97;7423077;19;2199;-90
2022/11/07 06:34:17;;;;;;;;;;;;;;;21.80;64.18;101435.97;7410383;19;1071;-89
2022/11/07 06:36:46;;;;;;;;;;;;;;;21.58;64.52;101440.59;7409957;19;1685;-90
2022/11/07 06:39:19;;;;;;;;;;;;;;;21.42;65.08;101443.75;7408549;19;1425;-88
2022/11/07 06:41:55;;;;;;;;;;;;;;;21.25;65.37;101452.47;7409400;19;1551;-89
2022/11/07 06:44:26;;;;;;;;;;;;;;;21.64;64.81;101458.03;7409040;19;1354;-90
2022/11/07 06:46:56;;;;;;;;;;;;;;;21.79;64.49;101440.53;7406434;19;1409;-90
2022/11/07 06:49:24;;;;;;;;;;;;;;;21.48;59.96;101457.69;7405242;19;1474;-91
2022/11/07 06:51:54;;;;;;;;;;;;;;;21.25;62.56;101466.75;7417901;19;1464;-90
2022/11/07 06:54:30;;;;;;;;;;;;;;;21.34;64.03;101462.41;7412559;19;1341;-89
2022/11/07 06:57:09;;;;;;;;;;;;;;;21.62;63.34;101481.53;7414904;19;1295;-91
2022/11/07 06:59:38;;;;;;;;;;;;;;;21.59;63.57;101481.84;7415840;19;1865;-92
2022/11/07 07:02:06;;;;;;;;;;;;;;;21.43;62.77;101469.72;7413377;19;1622;-91
2022/11/07 07:04:47;;;;;;;;;;;;;;;21.37;63.82;101491.75;7413160;19;1319;-92
2022/11/07 07:07:22;;;;;;;;;;;;;;;21.27;64.49;101485.47;7415994;19;1366;-92
2022/11/07 07:10:00;;;;;;;;;;;;;;;21.14;64.79;101487.50;7418332;19;1367;-93
2022/11/07 07:12:37;;;;;;;;;;;;;;;21.06;65.18;101483.63;7419009;19;1480;-92
2022/11/07 07:15:08;;;;;;;;;;;;;;;21.07;65.45;101484.50;7417212;19;1268;-90
2022/11/07 07:17:43;;;;;;;;;;;;;;;20.98;63.93;101496.03;7432322;19;1382;-90
2022/11/07 07:20:14;;;;;;;;;;;;;;;20.99;62.95;101501.28;7423907;19;1825;-89
2022/11/07 07:22:52;;;;;;;;;;;;;;;20.94;63.48;101489.22;7415921;19;1288;-92
2022/11/07 07:25:21;;;;;;;;;;;;;;;20.91;63.91;101498.41;7413985;19;1381;-91
2022/11/07 07:27:54;;;;;;;;;;;;;;;21.06;64.78;101505.13;7412422;19;1421;-92
2022/11/07 07:30:22;;;;;;;;;;;;;;;21.08;64.87;101513.09;7415826;19;1553;-91
2022/11/07 07:32:56;;;;;;;;;;;;;;;20.96;63.81;101492.63;7413678;19;1599;-91
2022/11/07 07:35:24;;;;;;;;;;;;;;;21.02;64.24;101495.63;7412742;19;1586;-92
2022/11/07 07:37:54;;;;;;;;;;;;;;;21.05;64.90;101492.69;7412933;19;1317;-92
2022/11/07 07:40:38;;;;;;;;;;;;;;;21.03;65.28;101494.66;7413572;19;1864;-92
2022/11/07 07:43:09;;;;;;;;;;;;;;;20.99;65.72;101490.53;7412181;19;1370;-93
2022/11/07 07:45:45;;;;;;;;;;;;;;;21.01;65.63;101488.56;7412139;19;1472;-92
2022/11/07 07:48:17;;;;;;;;;;;;;;;20.99;66.14;101495.91;7410265;19;1468;-95
2022/11/07 07:50:49;;;;;;;;;;;;;;;20.99;66.63;101498.59;7414756;19;1503;-91
2022/11/07 07:53:28;;;;;;;;;;;;;;;20.98;66.60;101487.97;7421884;19;1156;-91
2022/11/07 07:55:58;;;;;;;;;;;;;;;20.95;66.50;101509.72;7431226;19;1421;-91
2022/11/07 07:58:31;;;;;;;;;;;;;;;20.94;66.58;101513.41;7426097;19;1515;-90
2022/11/07 08:01:09;;;;;;;;;;;;;;;20.94;67.07;101508.88;7432324;19;1912;-90
2022/11/07 08:03:40;;;;;;;;;;;;;;;20.94;67.04;101506.19;7418908;19;1470;-90
2022/11/07 08:06:11;;;;;;;;;;;;;;;20.95;67.49;101494.47;7422742;19;1498;-90
2022/11/07 08:08:41;;;;;;;;;;;;;;;20.95;67.26;101502.53;7418095;19;1734;-90
2022/11/07 08:11:10;;;;;;;;;;;;;;;20.95;67.43;101507.03;7418283;19;1339;-93
2022/11/07 08:13:44;;;;;;;;;;;;;;;20.93;67.64;101503.63;7419689;19;1429;-91
2022/11/07 08:16:19;;;;;;;;;;;;;;;20.90;67.71;101502.06;7414786;19;1342;-90
2022/11/07 08:18:47;;;;;;;;;;;;;;;20.89;67.86;101516.50;7416907;19;1339;-93
2022/11/07 08:21:15;;;;;;;;;;;;;;;20.87;68.19;101518.47;7414763;19;1855;-93
2022/11/07 08:23:52;;;;;;;;;;;;;;;20.82;68.06;101513.44;7414086;19;1481;-94
2022/11/07 08:26:20;;;;;;;;;;;;;;;20.84;67.68;101513.34;7413750;19;1406;-95
2022/11/07 08:28:54;;;;;;;;;;;;;;;20.87;67.88;101518.47;7413876;19;1510;-95
2022/11/07 08:31:23;;;;;;;;;;;;;;;20.88;67.82;101520.16;7415449;19;1544;-93
2022/11/07 08:33:53;;;;;;;;;;;;;;;20.76;63.01;101500.53;7416818;19;1444;-93
2022/11/07 08:36:22;;;;;;;;;;;;;;;20.78;62.55;101511.16;7411247;19;1383;-94
2022/11/07 08:38:51;;;;;;;;;;;;;;;20.78;65.06;101508.47;7417989;19;1498;-92
2022/11/07 08:41:21;;;;;;;;;;;;;;;20.78;66.26;101509.31;7415401;19;1811;-92
2022/11/07 08:43:52;;;;;;;;;;;;;;;20.80;67.02;101523.47;7417029;19;1572;-90
2022/11/07 08:46:21;;;;;;;;;;;;;;;20.78;67.55;101513.84;7413868;19;1758;-91
2022/11/07 08:48:51;;;;;;;;;;;;;;;20.83;64.29;101516.97;7417158;19;1579;-90
2022/11/07 08:51:20;;;;;;;;;;;;;;;20.73;64.00;101510.69;7414466;19;1551;-90
2022/11/07 08:53:50;;;;;;;;;;;;;;;20.83;65.61;101520.56;7415134;19;1794;-94
2022/11/07 08:56:23;;;;;;;;;;;;;;;20.83;65.41;101516.97;7416269;19;1402;-92
2022/11/07 08:59:00;;;;;;;;;;;;;;;20.77;65.97;101520.19;7414229;19;1334;-91
2022/11/07 09:01:29;;;;;;;;;;;;;;;20.68;66.60;101504.84;7415974;19;1846;-92
2022/11/07 09:03:58;;;;;;;;;;;;;;;20.70;67.33;101517.19;7416607;19;1475;-92
2022/11/07 09:06:28;;;;;;;;;;;;;;;20.66;66.82;101521.09;7418346;19;1739;-95
2022/11/07 09:08:56;;;;;;;;;;;;;;;20.66;66.41;101526.47;7414404;19;1575;-92
2022/11/07 09:11:26;;;;;;;;;;;;;;;20.58;67.32;101519.03;7415245;19;1549;-96
2022/11/07 09:13:59;;;;;;;;;;;;;;;20.55;67.36;101513.91;7412956;19;1552;-91
2022/11/07 09:16:29;;;;;;;;;;;;;;;20.55;67.48;101516.59;7413084;19;1736;-92
2022/11/07 09:18:57;;;;;;;;;;;;;;;20.60;64.46;101506.34;7415530;19;1642;-93
2022/11/07 09:21:26;;;;;;;;;;;;;;;20.66;66.59;101515.72;7414194;19;1845;-93
2022/11/07 09:23:58;;;;;;;;;;;;;;;20.71;66.77;101521.59;7415018;19;1464;-91
2022/11/07 09:26:27;;;;;;;;;;;;;;;20.73;67.08;101508.00;7417190;19;1496;-93
2022/11/07 09:29:04;;;;;;;;;;;;;;;20.73;67.49;101513.38;7417629;19;1626;-93
2022/11/07 09:34:19;;;;;;;;;;;;;;;20.80;67.24;101514.56;7419688;19;1358;-93
2022/11/07 09:36:58;;;;;;;;;;;;;;;20.78;67.43;101525.44;7419957;19;1259;-93
2022/11/07 09:39:27;;;;;;;;;;;;;;;20.77;67.59;101504.06;7418147;19;1413;-93
2022/11/07 09:42:01;;;;;;;;;;;;;;;20.82;67.39;101510.75;7418355;19;1829;-92
2022/11/07 09:44:40;;;;;;;;;;;;;;;20.76;67.95;101507.75;7418237;19;1465;-91
2022/11/07 09:47:21;;;;;;;;;;;;;;;20.73;67.52;101499.94;7416438;19;1604;-92
2022/11/07 09:49:51;;;;;;;;;;;;;;;20.79;67.82;101511.03;7417265;19;1488;-90
2022/11/07 09:52:24;;;;;;;;;;;;;;;20.74;68.37;101497.13;7418971;19;1391;-91
2022/11/07 09:54:59;;;;;;;;;;;;;;;20.77;67.72;101506.75;7417831;19;1407;-91
2022/11/07 09:57:31;;;;;;;;;;;;;;;20.82;68.17;101502.69;7419297;19;1194;-90
2022/11/07 10:00:03;;;;;;;;;;;;;;;20.79;67.91;101504.78;7421151;19;1358;-91
2022/11/07 10:02:35;;;;;;;;;;;;;;;20.80;68.37;101495.75;7418372;19;1854;-90
2022/11/07 10:05:08;;;;;;;;;;;;;;;20.71;67.67;101502.78;7420385;19;1485;-89
2022/11/07 10:07:40;;;;;;;;;;;;;;;20.73;68.48;101489.19;7416389;19;1552;-90
2022/11/07 10:10:15;;;;;;;;;;;;;;;20.79;68.81;101488.66;7416439;19;1445;-89
2022/11/07 10:13:00;;;;;;;;;;;;;;;20.76;68.75;101481.72;7414793;19;1385;-87
2022/11/07 10:15:34;;;;;;;;;;;;;;;20.81;68.75;101494.75;7406188;19;1412;-87
2022/11/07 10:18:05;;;;;;;;;;;;;;;20.57;66.47;101495.84;7409717;19;1435;-86
2022/11/07 10:20:38;;;;;;;;;;;;;;;20.51;64.73;101493.63;7408654;19;983;-89
2022/11/07 10:23:20;;;;;;;;;;;;;;;20.52;65.76;101481.91;7409242;19;1759;-87
2022/11/07 10:25:52;;;;;;;;;;;;;;;20.54;68.14;101479.09;7409835;19;1454;-89
2022/11/07 10:28:21;;;;;;;;;;;;;;;20.48;69.04;101472.41;7412279;19;1629;-88
2022/11/07 10:31:06;;;;;;;;;;;;;;;20.46;68.77;101466.31;7413533;19;1114;-88
2022/11/07 10:33:40;;;;;;;;;;;;;;;20.43;68.81;101472.81;7413452;19;1179;-89
2022/11/07 10:36:14;;;;;;;;;;;;;;;20.43;68.88;101479.97;7415567;19;1700;-87
2022/11/07 10:38:44;;;;;;;;;;;;;;;20.50;68.55;101478.50;7411117;19;1412;-87
2022/11/07 10:41:19;;;;;;;;;;;;;;;20.47;68.65;101478.75;7414523;19;1844;-88
2022/11/07 10:43:51;;;;;;;;;;;;;;;20.41;68.92;101468.50;7415010;19;1472;-88
2022/11/07 10:46:22;;;;;;;;;;;;;;;20.39;68.86;101470.47;7413321;19;995;-87
2022/11/07 10:49:09;;;;;;;;;;;;;;;20.40;69.00;101474.88;7419669;19;1144;-88
2022/11/07 10:51:50;;;;;;;;;;;;;;;20.39;68.86;101473.16;7418117;19;1271;-88
2022/11/07 10:54:23;;;;;;;;;;;;;;;20.40;69.05;101475.72;7412694;19;1015;-88
2022/11/07 10:57:09;;;;;;;;;;;;;;;20.40;68.67;101464.13;7413007;19;1061;-88
2022/11/07 10:59:39;;;;;;;;;;;;;;;20.37;68.84;101467.06;7416681;19;1594;-87
2022/11/07 11:02:20;;;;;;;;;;;;;;;20.40;68.91;101448.03;7427611;19;1823;-87
2022/11/07 11:04:50;;;;;;;;;;;;;;;20.36;69.05;101460.00;7412778;19;984;-88
2022/11/07 11:07:21;;;;;;;;;;;;;;;20.36;69.23;101460.00;7411636;19;1665;-87
2022/11/07 11:09:51;;;;;;;;;;;;;;;20.34;69.18;101452.06;7411866;19;1747;-88
2022/11/07 11:12:24;;;;;;;;;;;;;;;20.34;68.95;101441.31;7417227;19;1007;-88
2022/11/07 11:15:04;;;;;;;;;;;;;;;20.33;69.15;101439.59;7412267;19;972;-89
2022/11/07 11:17:33;;;;;;;;;;;;;;;20.33;69.07;101434.22;7412428;19;964;-88
2022/11/07 11:20:17;;;;;;;;;;;;;;;20.33;69.27;101434.22;7409873;19;1477;-88
2022/11/07 11:22:49;;;;;;;;;;;;;;;20.33;69.11;101422.63;7410627;19;1857;-88
2022/11/07 11:25:20;;;;;;;;;;;;;;;20.31;68.95;101421.91;7411499;19;1004;-87
2022/11/07 11:27:51;;;;;;;;;;;;;;;20.34;69.09;101414.47;7412324;19;997;-87
2022/11/07 11:30:20;;;;;;;;;;;;;;;20.32;69.06;101412.91;7412029;19;1092;-88
2022/11/07 11:32:52;;;;;;;;;;;;;;;20.33;69.17;101412.75;7411697;19;1024;-87
2022/11/07 11:35:24;;;;;;;;;;;;;;;20.32;69.13;101418.25;7415398;19;1379;-88
2022/11/07 11:38:00;;;;;;;;;;;;;;;20.30;69.15;101412.16;7407819;19;944;-87
2022/11/07 11:40:35;;;;;;;;;;;;;;;20.32;68.89;101415.56;7411457;19;1023;-88
2022/11/07 11:43:13;;;;;;;;;;;;;;;20.41;68.89;101395.97;7409052;19;1815;-87
2022/11/07 11:45:45;;;;;;;;;;;;;;;20.41;68.91;101404.03;7413008;19;1239;-89
2022/11/07 11:48:25;;;;;;;;;;;;;;;20.42;68.05;101403.91;7411325;19;1034;-88
2022/11/07 11:50:56;;;;;;;;;;;;;;;20.44;68.64;101406.47;7413231;19;1337;-88
2022/11/07 11:53:29;;;;;;;;;;;;;;;20.36;68.53;101380.25;7411068;19;1511;-88
2022/11/07 11:56:04;;;;;;;;;;;;;;;20.39;68.34;101380.03;7414911;19;1594;-89
2022/11/07 11:58:43;;;;;;;;;;;;;;;20.52;68.34;101398.63;7415199;19;1653;-89
2022/11/07 12:01:22;;;;;;;;;;;;;;;20.56;68.59;101413.50;7413287;19;1861;-90
2022/11/07 12:04:03;;;;;;;;;;;;;;;20.56;68.21;101396.53;7408211;19;1390;-90
2022/11/07 12:06:36;;;;;;;;;;;;;;;20.52;68.65;101395.94;7415475;19;1526;-90
2022/11/07 12:09:14;;;;;;;;;;;;;;;20.47;68.77;101406.22;7411342;19;979;-89
2022/11/07 12:11:47;;;;;;;;;;;;;;;20.48;68.54;101394.50;7413100;19;1684;-89
2022/11/07 12:14:30;;;;;;;;;;;;;;;20.56;68.42;101391.16;7414280;19;1694;-90
2022/11/07 12:17:03;;;;;;;;;;;;;;;20.56;68.41;101389.31;7407557;19;1393;-88
2022/11/07 12:19:38;;;;;;;;;;;;;;;20.49;68.50;101377.38;7410362;19;1474;-90
2022/11/07 12:22:11;;;;;;;;;;;;;;;20.50;68.69;101402.44;7413766;19;1858;-90
2022/11/07 12:24:47;;;;;;;;;;;;;;;20.41;68.89;101388.81;7412402;19;1067;-89
2022/11/07 12:27:20;;;;;;;;;;;;;;;20.48;68.89;101394.50;7410800;19;1024;-90
2022/11/07 12:30:03;;;;;;;;;;;;;;;20.45;68.81;101381.31;7412082;19;1093;-91
2022/11/07 12:32:45;;;;;;;;;;;;;;;20.47;68.69;101382.03;7421549;19;1386;-93
2022/11/07 12:35:40;;;;;;;;;;;;;;;20.49;68.79;101389.97;7418877;19;1629;-90
2022/11/07 12:38:18;;;;;;;;;;;;;;;20.41;69.18;101378.06;7413799;19;1304;-90
2022/11/07 12:40:55;;;;;;;;;;;;;;;20.40;68.85;101376.34;7415965;19;1154;-89
2022/11/07 12:43:40;;;;;;;;;;;;;;;20.44;69.15;101393.06;7415999;19;1814;-91
2022/11/07 12:46:11;;;;;;;;;;;;;;;20.42;68.98;101389.66;7413667;19;1478;-91
2022/11/07 12:49:09;;;;;;;;;;;;;;;20.41;68.95;101395.97;7348543;19;12599;-89
2022/11/07 12:51:47;;;;;;;;;;;;;;;20.39;69.18;101379.13;7410914;19;1474;-90
2022/11/07 12:54:30;;;;;;;;;;;;;;;20.45;68.95;101390.25;7408653;19;1605;-89
2022/11/07 12:57:14;;;;;;;;;;;;;;;20.46;68.13;101377.66;7412879;19;1597;-89
2022/11/07 12:59:46;;;;;;;;;;;;;;;20.47;68.33;101392.78;7412913;19;1647;-89
2022/11/07 13:02:20;;;;;;;;;;;;;;;20.43;68.17;101367.16;7411549;19;1815;-90
2022/11/07 13:04:58;;;;;;;;;;;;;;;20.41;66.62;101370.00;7412785;19;1717;-88
2022/11/07 13:07:39;;;;;;;;;;;;;;;20.40;68.61;101378.19;7408414;19;1637;-90
2022/11/07 13:10:14;;;;;;;;;;;;;;;20.40;68.92;101375.50;7412058;19;1408;-90
2022/11/07 13:12:53;;;;;;;;;;;;;;;20.35;68.89;101356.22;7406498;19;1377;-90
2022/11/07 13:15:21;;;;;;;;;;;;;;;20.35;69.01;101383.06;7409722;19;977;-91
2022/11/07 13:17:51;;;;;;;;;;;;;;;20.35;69.01;101366.94;7414289;19;1294;-89
2022/11/07 13:20:32;;;;;;;;;;;;;;;20.36;69.05;101376.72;7407828;19;1510;-89
2022/11/07 13:23:01;;;;;;;;;;;;;;;20.34;69.03;101370.63;7408497;19;2138;-88